createdAt,value
2022-10-19T00:01:29.016Z,48.99
2022-10-19T00:03:59.989Z,48.85
2022-10-19T00:06:33.233Z,48.37
2022-10-19T00:09:08.575Z,48.02
2022-10-19T00:11:41.465Z,47.92
2022-10-19T00:14:14.175Z,48.00
2022-10-19T00:16:44.430Z,48.35
2022-10-19T00:19:17.225Z,48.48
2022-10-19T00:21:47.423Z,48.57
2022-10-19T00:24:20.001Z,48.66
2022-10-19T00:26:49.867Z,48.62
2022-10-19T00:29:20.412Z,48.48
2022-10-19T00:31:51.981Z,48.42
2022-10-19T00:34:23.306Z,48.67
2022-10-19T00:36:53.160Z,49.03
2022-10-19T00:39:25.574Z,49.52
2022-10-19T00:41:55.389Z,48.90
2022-10-19T00:44:55.517Z,48.84
2022-10-19T00:47:27.023Z,49.53
2022-10-19T00:49:57.696Z,49.63
2022-10-19T00:52:29.150Z,49.11
2022-10-19T00:55:02.794Z,49.32
2022-10-19T00:57:34.692Z,49.54
2022-10-19T01:00:07.939Z,49.13
2022-10-19T01:02:38.261Z,48.85
2022-10-19T01:05:11.999Z,48.85
2022-10-19T01:07:41.870Z,48.75
2022-10-19T01:10:15.577Z,49.25
2022-10-19T01:12:59.312Z,48.57
2022-10-19T01:15:39.206Z,48.58
2022-10-19T01:18:17.564Z,48.19
2022-10-19T01:21:11.425Z,48.26
2022-10-19T01:24:03.911Z,47.61
2022-10-19T01:27:16.087Z,47.38
2022-10-19T01:30:10.097Z,47.30
2022-10-19T01:32:55.933Z,47.30
2022-10-19T01:35:34.194Z,47.16
2022-10-19T01:38:25.083Z,47.38
2022-10-19T01:41:01.400Z,47.07
2022-10-19T01:43:39.740Z,47.26
2022-10-19T01:46:16.533Z,47.34
2022-10-19T01:48:53.625Z,47.11
2022-10-19T01:51:29.279Z,47.26
2022-10-19T01:54:06.340Z,46.88
2022-10-19T01:56:39.451Z,47.38
2022-10-19T01:59:12.335Z,47.06
2022-10-19T02:01:49.037Z,47.39
2022-10-19T02:04:25.684Z,47.24
2022-10-19T02:06:58.061Z,47.29
2022-10-19T02:09:28.125Z,48.10
2022-10-19T02:12:02.273Z,47.92
2022-10-19T02:14:36.861Z,48.15
2022-10-19T02:17:12.282Z,47.80
2022-10-19T02:19:43.013Z,47.25
2022-10-19T02:22:14.517Z,47.32
2022-10-19T02:24:44.307Z,46.99
2022-10-19T02:27:14.298Z,46.50
2022-10-19T02:29:44.450Z,47.13
2022-10-19T02:32:17.096Z,47.01
2022-10-19T02:34:46.993Z,46.81
2022-10-19T02:37:18.940Z,47.39
2022-10-19T02:39:50.816Z,47.04
2022-10-19T02:42:27.693Z,46.93
2022-10-19T02:45:02.925Z,46.69
2022-10-19T02:47:40.365Z,46.71
2022-10-19T02:50:12.200Z,47.13
2022-10-19T02:52:43.128Z,46.71
2022-10-19T02:55:13.602Z,47.15
2022-10-19T02:57:43.567Z,47.34
2022-10-19T03:00:14.909Z,47.07
2022-10-19T03:02:48.486Z,47.80
2022-10-19T03:05:18.662Z,47.37
2022-10-19T03:07:48.570Z,47.44
2022-10-19T03:10:18.537Z,47.67
2022-10-19T03:12:51.236Z,48.08
2022-10-19T03:15:24.775Z,48.31
2022-10-19T03:17:59.005Z,48.16
2022-10-19T03:20:29.026Z,48.10
2022-10-19T03:23:01.486Z,47.93
2022-10-19T03:25:31.244Z,48.25
2022-10-19T03:28:01.456Z,48.58
2022-10-19T03:30:31.191Z,48.15
2022-10-19T03:33:03.615Z,48.65
2022-10-19T03:35:33.559Z,48.71
2022-10-19T03:38:03.426Z,48.89
2022-10-19T03:40:33.336Z,49.06
2022-10-19T03:43:03.173Z,48.83
2022-10-19T03:45:33.020Z,48.68
2022-10-19T03:48:05.472Z,48.54
2022-10-19T03:50:35.292Z,48.70
2022-10-19T03:53:05.039Z,48.62
2022-10-19T03:55:34.919Z,48.71
2022-10-19T03:58:04.824Z,48.64
2022-10-19T04:00:34.636Z,48.37
2022-10-19T04:03:07.115Z,48.73
2022-10-19T04:05:36.995Z,48.90
2022-10-19T04:08:07.243Z,48.72
2022-10-19T04:10:37.155Z,49.10
2022-10-19T04:13:06.968Z,48.57
2022-10-19T04:15:36.783Z,48.65
2022-10-19T04:18:09.337Z,48.58
2022-10-19T04:20:42.800Z,48.23
2022-10-19T04:23:12.642Z,48.31
2022-10-19T04:25:42.446Z,48.58
2022-10-19T04:28:12.461Z,47.93
2022-10-19T04:30:42.313Z,48.04
2022-10-19T04:33:14.826Z,48.07
2022-10-19T04:35:44.639Z,47.52
2022-10-19T04:38:14.411Z,47.32
2022-10-19T04:40:44.255Z,47.35
2022-10-19T04:43:14.346Z,47.66
2022-10-19T04:45:44.120Z,48.25
2022-10-19T04:48:16.558Z,48.15
2022-10-19T04:50:46.452Z,48.19
2022-10-19T04:55:54.623Z,47.93
2022-10-19T04:58:24.457Z,48.06
2022-10-19T05:00:54.324Z,47.96
2022-10-19T05:03:26.726Z,47.81
2022-10-19T05:05:56.474Z,47.85
2022-10-19T05:08:26.249Z,48.06
2022-10-19T05:10:56.078Z,48.19
2022-10-19T05:13:25.856Z,48.53
2022-10-19T05:15:59.831Z,48.29
2022-10-19T05:18:32.405Z,48.47
2022-10-19T05:21:06.545Z,48.42
2022-10-19T05:23:37.283Z,48.17
2022-10-19T05:26:09.254Z,48.09
2022-10-19T05:28:39.681Z,48.23
2022-10-19T05:31:12.660Z,48.26
2022-10-19T05:33:45.784Z,48.42
2022-10-19T05:36:18.038Z,48.34
2022-10-19T05:38:49.506Z,48.31
2022-10-19T05:41:19.929Z,48.75
2022-10-19T05:43:55.583Z,48.90
2022-10-19T05:46:26.352Z,49.03
2022-10-19T05:49:00.002Z,49.06
2022-10-19T05:51:30.968Z,49.23
2022-10-19T05:54:00.967Z,49.12
2022-10-19T05:56:32.554Z,49.30
2022-10-19T05:59:04.529Z,49.41
2022-10-19T06:01:35.227Z,49.44
2022-10-19T06:04:08.025Z,49.61
2022-10-19T06:06:38.073Z,49.74
2022-10-19T06:09:08.105Z,49.82
2022-10-19T06:11:40.105Z,49.64
2022-10-19T06:14:13.944Z,49.87
2022-10-19T06:16:46.234Z,49.88
2022-10-19T06:19:18.895Z,49.56
2022-10-19T06:21:48.778Z,49.52
2022-10-19T06:24:18.558Z,49.51
2022-10-19T06:26:48.399Z,49.52
2022-10-19T06:29:36.787Z,49.39
2022-10-19T06:32:06.927Z,49.69
2022-10-19T06:34:39.254Z,49.91
2022-10-19T06:37:09.242Z,49.50
2022-10-19T06:39:39.110Z,49.55
2022-10-19T06:42:09.654Z,49.54
2022-10-19T06:44:39.408Z,49.34
2022-10-19T06:47:09.234Z,49.37
2022-10-19T06:49:41.690Z,49.42
2022-10-19T06:52:11.685Z,49.05
2022-10-19T06:54:41.460Z,49.41
2022-10-19T06:57:11.379Z,49.23
2022-10-19T06:59:41.311Z,48.99
2022-10-19T07:02:13.112Z,49.12
2022-10-19T07:04:45.465Z,48.99
2022-10-19T07:07:15.493Z,49.00
2022-10-19T07:09:45.286Z,49.11
2022-10-19T07:12:15.177Z,49.03
2022-10-19T07:14:44.994Z,48.87
2022-10-19T07:17:15.243Z,48.83
2022-10-19T07:19:47.638Z,49.00
2022-10-19T07:22:22.172Z,49.15
2022-10-19T07:24:55.575Z,49.23
2022-10-19T07:27:25.426Z,49.10
2022-10-19T07:29:55.225Z,49.21
2022-10-19T07:32:25.012Z,49.12
2022-10-19T07:34:57.484Z,48.98
2022-10-19T07:37:27.487Z,48.88
2022-10-19T07:39:57.451Z,48.44
2022-10-19T07:42:27.568Z,48.82
2022-10-19T07:44:57.356Z,48.91
2022-10-19T07:47:27.302Z,49.01
2022-10-19T07:49:59.869Z,49.10
2022-10-19T07:52:31.821Z,48.72
2022-10-19T07:55:04.212Z,48.79
2022-10-19T07:57:34.240Z,48.50
2022-10-19T08:00:04.284Z,48.58
2022-10-19T08:02:54.883Z,48.57
2022-10-19T08:05:34.840Z,48.47
2022-10-19T08:08:05.189Z,48.18
2022-10-19T08:10:35.075Z,48.04
2022-10-19T08:13:04.918Z,48.19
2022-10-19T08:15:34.734Z,48.76
2022-10-19T08:18:04.756Z,48.90
2022-10-19T08:20:37.178Z,49.50
2022-10-19T08:26:14.554Z,50.47
2022-10-19T08:28:44.523Z,51.55
2022-10-19T08:31:16.155Z,51.33
2022-10-19T08:33:46.609Z,52.08
2022-10-19T08:36:19.726Z,51.90
2022-10-19T08:38:49.972Z,51.47
2022-10-19T08:41:35.552Z,51.88
2022-10-19T08:44:40.211Z,51.93
2022-10-19T08:47:23.622Z,51.59
2022-10-19T08:49:53.940Z,51.34
2022-10-19T08:52:34.403Z,51.20
2022-10-19T08:55:06.179Z,50.79
2022-10-19T08:57:45.024Z,50.40
2022-10-19T09:00:22.325Z,50.53
2022-10-19T09:03:07.116Z,49.50
2022-10-19T09:05:46.181Z,49.02
2022-10-19T09:08:20.613Z,48.08
2022-10-19T09:10:53.365Z,47.46
2022-10-19T09:13:41.713Z,47.37
2022-10-19T09:16:28.100Z,46.97
2022-10-19T09:18:57.879Z,47.32
2022-10-19T09:21:43.292Z,47.41
2022-10-19T09:24:31.545Z,46.17
2022-10-19T09:27:03.896Z,45.02
2022-10-19T09:29:41.719Z,44.17
2022-10-19T09:32:18.214Z,43.34
2022-10-19T09:34:52.737Z,42.56
2022-10-19T09:37:26.522Z,40.58
2022-10-19T09:39:59.332Z,40.76
2022-10-19T09:42:33.734Z,38.89
2022-10-19T09:45:14.200Z,38.88
2022-10-19T09:47:48.686Z,37.62
2022-10-19T09:50:21.898Z,36.04
2022-10-19T09:52:52.998Z,35.68
2022-10-19T09:55:32.418Z,34.81
2022-10-19T09:58:05.318Z,33.29
2022-10-19T10:00:38.419Z,32.72
2022-10-19T10:03:10.386Z,32.06
2022-10-19T10:05:42.638Z,31.83
2022-10-19T10:08:17.727Z,32.60
2022-10-19T10:11:05.431Z,31.59
2022-10-19T10:13:40.249Z,30.40
2022-10-19T10:16:12.303Z,30.93
2022-10-19T10:18:54.135Z,31.56
2022-10-19T10:21:26.247Z,32.14
2022-10-19T10:24:05.905Z,32.47
2022-10-19T10:26:41.871Z,33.17
2022-10-19T10:29:23.773Z,33.31
2022-10-19T10:31:56.584Z,30.48
2022-10-19T10:34:50.071Z,29.20
2022-10-19T10:37:24.763Z,29.14
2022-10-19T10:39:59.084Z,27.39
2022-10-19T10:42:39.382Z,26.22
2022-10-19T10:45:20.489Z,24.24
2022-10-19T10:47:51.309Z,23.08
2022-10-19T10:50:24.912Z,23.36
2022-10-19T10:53:00.996Z,21.87
2022-10-19T10:55:31.910Z,20.01
2022-10-19T10:58:17.629Z,18.99
2022-10-19T11:00:48.399Z,17.68
2022-10-19T11:03:22.940Z,16.32
2022-10-19T11:05:58.933Z,16.45
2022-10-19T11:08:34.973Z,17.91
2022-10-19T11:11:14.255Z,19.77
2022-10-19T11:13:54.261Z,22.53
2022-10-19T11:16:29.780Z,24.90
2022-10-19T11:19:04.981Z,27.24
2022-10-19T11:21:40.504Z,28.24
2022-10-19T11:24:18.446Z,28.32
2022-10-19T11:27:02.334Z,27.98
2022-10-19T11:29:59.523Z,25.21
2022-10-19T11:32:38.218Z,24.66
2022-10-19T11:35:23.822Z,25.63
2022-10-19T11:38:21.364Z,27.57
2022-10-19T11:41:17.404Z,29.05
2022-10-19T11:43:59.196Z,30.55
2022-10-19T11:46:38.025Z,31.47
2022-10-19T11:49:22.204Z,31.89
2022-10-19T11:51:57.639Z,32.51
2022-10-19T11:54:41.139Z,32.89
2022-10-19T11:57:18.944Z,33.22
2022-10-19T12:00:14.985Z,33.34
2022-10-19T12:03:18.091Z,32.41
2022-10-19T12:06:01.295Z,27.21
2022-10-19T12:08:49.112Z,26.88
2022-10-19T12:11:31.011Z,27.67
2022-10-19T12:14:07.143Z,28.69
2022-10-19T12:16:40.943Z,29.40
2022-10-19T12:19:21.389Z,31.83
2022-10-19T12:21:53.184Z,32.15
2022-10-19T12:24:26.502Z,32.85
2022-10-19T12:26:57.495Z,33.33
2022-10-19T12:29:30.913Z,34.21
2022-10-19T12:32:02.573Z,33.88
2022-10-19T12:34:45.327Z,35.55
2022-10-19T12:37:22.698Z,35.38
2022-10-19T12:39:56.430Z,35.24
2022-10-19T12:42:31.586Z,33.72
2022-10-19T12:45:17.002Z,31.96
2022-10-19T12:48:19.557Z,32.64
2022-10-19T12:51:09.012Z,32.65
2022-10-19T12:53:41.572Z,32.40
2022-10-19T12:56:16.275Z,33.32
2022-10-19T12:58:54.466Z,33.01
2022-10-19T13:01:29.873Z,33.08
2022-10-19T13:04:14.682Z,33.81
2022-10-19T13:06:49.418Z,33.03
2022-10-19T13:09:27.491Z,31.99
2022-10-19T13:12:27.395Z,32.30
2022-10-19T13:14:58.467Z,32.08
2022-10-19T13:17:44.173Z,33.50
2022-10-19T13:20:50.743Z,33.98
2022-10-19T13:23:45.399Z,34.10
2022-10-19T13:26:36.070Z,35.26
2022-10-19T13:29:05.929Z,35.71
2022-10-19T13:31:37.540Z,35.95
2022-10-19T13:34:13.277Z,36.37
2022-10-19T13:37:02.348Z,35.60
2022-10-19T13:39:42.864Z,36.60
2022-10-19T13:42:26.537Z,37.08
2022-10-19T13:44:56.778Z,37.37
2022-10-19T13:50:38.611Z,37.47
2022-10-19T13:53:33.434Z,37.21
2022-10-19T13:56:28.820Z,37.29
2022-10-19T13:59:27.961Z,37.27
2022-10-19T14:02:34.358Z,37.74
2022-10-19T14:05:21.116Z,38.57
2022-10-19T14:08:06.154Z,37.89
2022-10-19T14:10:56.278Z,37.81
2022-10-19T14:13:29.554Z,37.51
2022-10-19T14:16:03.084Z,37.48
2022-10-19T14:18:34.186Z,36.54
2022-10-19T14:21:06.451Z,35.77
2022-10-19T14:23:38.240Z,35.28
2022-10-19T14:26:14.272Z,35.74
2022-10-19T14:28:46.906Z,35.99
2022-10-19T14:31:24.533Z,36.18
2022-10-19T14:33:56.593Z,35.64
2022-10-19T14:36:30.805Z,36.27
2022-10-19T14:39:00.734Z,36.91
2022-10-19T14:44:39.759Z,36.41
2022-10-19T14:47:24.082Z,36.90
2022-10-19T14:49:54.180Z,37.51
2022-10-19T14:52:31.072Z,36.94
2022-10-19T14:55:05.275Z,37.23
2022-10-19T14:57:38.556Z,36.92
2022-10-19T15:00:21.421Z,37.93
2022-10-19T15:02:58.825Z,38.03
2022-10-19T15:05:34.201Z,37.69
2022-10-19T15:08:11.360Z,38.00
2022-10-19T15:10:45.831Z,37.89
2022-10-19T15:13:26.772Z,38.19
2022-10-19T15:15:59.155Z,38.59
2022-10-19T15:18:48.288Z,39.32
2022-10-19T15:21:22.897Z,39.79
2022-10-19T15:23:54.596Z,39.69
2022-10-19T15:26:32.517Z,40.05
2022-10-19T15:29:13.643Z,40.55
2022-10-19T15:31:46.128Z,40.28
2022-10-19T15:34:25.694Z,40.72
2022-10-19T15:37:00.803Z,41.02
2022-10-19T15:39:42.187Z,40.38
2022-10-19T15:42:44.356Z,40.99
2022-10-19T15:45:36.213Z,40.91
2022-10-19T15:48:30.227Z,41.13
2022-10-19T15:51:00.506Z,41.04
2022-10-19T15:53:30.315Z,41.46
2022-10-19T15:58:58.654Z,42.20
2022-10-19T16:01:33.898Z,42.68
2022-10-19T16:04:09.019Z,42.62
2022-10-19T16:06:44.056Z,42.83
2022-10-19T16:09:20.478Z,42.95
2022-10-19T16:11:56.458Z,43.02
2022-10-19T16:14:31.937Z,43.15
2022-10-19T16:17:05.608Z,42.83
2022-10-19T16:19:41.802Z,42.92
2022-10-19T16:22:11.814Z,42.93
2022-10-19T16:24:42.415Z,42.84
2022-10-19T16:27:15.147Z,42.98
2022-10-19T16:29:45.933Z,42.96
2022-10-19T16:32:15.942Z,43.00
2022-10-19T16:34:49.325Z,43.47
2022-10-19T16:37:22.290Z,43.19
2022-10-19T16:39:52.124Z,43.47
2022-10-19T16:42:24.584Z,43.36
2022-10-19T16:44:55.561Z,43.06
2022-10-19T16:47:25.655Z,43.34
2022-10-19T16:50:03.782Z,43.51
2022-10-19T16:52:34.333Z,43.63
2022-10-19T16:55:05.396Z,43.67
2022-10-19T16:57:35.352Z,43.61
2022-10-19T17:00:05.601Z,43.62
2022-10-19T17:02:35.879Z,43.97
2022-10-19T17:05:08.846Z,43.95
2022-10-19T17:07:38.870Z,43.92
2022-10-19T17:10:09.476Z,43.98
2022-10-19T17:12:42.039Z,43.84
2022-10-19T17:18:03.209Z,43.95
2022-10-19T17:20:36.258Z,44.08
2022-10-19T17:23:06.720Z,43.98
2022-10-19T17:25:36.801Z,44.04
2022-10-19T17:28:06.943Z,44.20
2022-10-19T17:30:36.755Z,44.15
2022-10-19T17:33:09.785Z,44.18
2022-10-19T17:35:44.808Z,44.21
2022-10-19T17:38:14.964Z,44.55
2022-10-19T17:40:47.287Z,44.28
2022-10-19T17:43:17.189Z,43.90
2022-10-19T17:45:51.241Z,44.37
2022-10-19T17:48:23.771Z,44.18
2022-10-19T17:51:02.700Z,44.42
2022-10-19T17:53:33.895Z,44.32
2022-10-19T17:56:05.638Z,44.45
2022-10-19T17:58:39.740Z,44.25
2022-10-19T18:01:10.777Z,44.13
2022-10-19T18:03:42.392Z,44.21
2022-10-19T18:06:16.817Z,44.07
2022-10-19T18:08:49.723Z,44.40
2022-10-19T18:11:27.984Z,44.28
2022-10-19T18:14:00.735Z,44.30
2022-10-19T18:16:32.343Z,44.11
2022-10-19T18:19:05.387Z,43.89
2022-10-19T18:21:41.385Z,44.15
2022-10-19T18:24:15.372Z,44.02
2022-10-19T18:26:46.714Z,43.75
2022-10-19T18:29:20.089Z,43.82
2022-10-19T18:31:52.253Z,43.79
2022-10-19T18:34:23.881Z,44.26
2022-10-19T18:36:57.206Z,44.16
2022-10-19T18:39:27.316Z,44.17
2022-10-19T18:41:57.417Z,44.13
2022-10-19T18:44:29.566Z,44.07
2022-10-19T18:47:02.819Z,43.89
2022-10-19T18:49:32.648Z,43.94
2022-10-19T18:52:05.053Z,44.03
2022-10-19T18:54:34.901Z,43.47
2022-10-19T18:57:04.841Z,43.34
2022-10-19T18:59:34.788Z,43.58
2022-10-19T19:02:13.660Z,43.91
2022-10-19T19:04:53.152Z,44.08
2022-10-19T19:07:25.912Z,43.78
2022-10-19T19:09:55.709Z,44.36
2022-10-19T19:12:25.670Z,44.01
2022-10-19T19:14:55.468Z,43.88
2022-10-19T19:17:25.283Z,43.77
2022-10-19T19:19:55.222Z,43.79
2022-10-19T19:22:30.401Z,43.24
2022-10-19T19:25:00.287Z,43.15
2022-10-19T19:27:31.928Z,43.11
2022-10-19T19:30:04.807Z,43.10
2022-10-19T19:32:34.998Z,43.25
2022-10-19T19:35:05.380Z,43.22
2022-10-19T19:37:38.706Z,42.94
2022-10-19T19:40:11.902Z,43.02
2022-10-19T19:42:42.257Z,43.24
2022-10-19T19:45:13.572Z,43.25
2022-10-19T19:47:44.005Z,43.11
2022-10-19T19:50:13.813Z,43.02
2022-10-19T19:52:48.341Z,43.31
2022-10-19T19:55:18.261Z,43.07
2022-10-19T19:57:50.224Z,43.41
2022-10-19T20:00:20.179Z,43.41
2022-10-19T20:02:54.581Z,43.33
2022-10-19T20:05:25.061Z,43.58
2022-10-19T20:07:57.691Z,43.60
2022-10-19T20:10:27.847Z,43.48
2022-10-19T20:12:57.741Z,43.50
2022-10-19T20:15:27.564Z,43.64
2022-10-19T20:17:57.480Z,43.50
2022-10-19T20:20:27.320Z,43.33
2022-10-19T20:22:59.837Z,43.85
2022-10-19T20:25:29.747Z,43.98
2022-10-19T20:27:59.537Z,43.76
2022-10-19T20:30:29.300Z,44.01
2022-10-19T20:32:59.685Z,43.76
2022-10-19T20:35:29.522Z,43.70
2022-10-19T20:38:03.072Z,43.81
2022-10-19T20:40:33.055Z,43.82
2022-10-19T20:43:05.970Z,43.71
2022-10-19T20:45:35.807Z,43.64
2022-10-19T20:48:05.616Z,43.83
2022-10-19T20:50:35.735Z,43.69
2022-10-19T20:53:09.437Z,43.75
2022-10-19T20:55:39.216Z,43.53
2022-10-19T20:58:09.245Z,43.74
2022-10-19T21:00:41.435Z,43.72
2022-10-19T21:03:11.168Z,43.85
2022-10-19T21:05:41.184Z,43.81
2022-10-19T21:08:15.921Z,43.70
2022-10-19T21:10:45.772Z,43.66
2022-10-19T21:13:18.682Z,43.76
2022-10-19T21:15:54.632Z,43.68
2022-10-19T21:18:24.356Z,43.77
2022-10-19T21:20:57.305Z,43.75
2022-10-19T21:23:30.238Z,43.96
2022-10-19T21:26:00.144Z,43.84
2022-10-19T21:28:29.949Z,43.63
2022-10-19T21:30:59.992Z,43.72
2022-10-19T21:33:29.811Z,43.89
2022-10-19T21:35:59.765Z,43.64
2022-10-19T21:38:32.355Z,43.91
2022-10-19T21:41:03.447Z,43.89
2022-10-19T21:43:33.973Z,43.80
2022-10-19T21:46:05.069Z,43.67
2022-10-19T21:48:36.187Z,43.85
2022-10-19T21:51:19.853Z,44.01
2022-10-19T21:53:52.934Z,43.63
2022-10-19T21:56:22.776Z,43.61
2022-10-19T21:58:54.005Z,43.91
2022-10-19T22:01:25.927Z,43.74
2022-10-19T22:03:58.871Z,43.97
2022-10-19T22:06:30.440Z,43.85
2022-10-19T22:09:07.383Z,44.10
2022-10-19T22:11:37.380Z,43.95
2022-10-19T22:14:08.238Z,44.01
2022-10-19T22:16:38.064Z,43.99
2022-10-19T22:19:08.598Z,43.97
2022-10-19T22:24:15.649Z,44.25
2022-10-19T22:26:47.843Z,44.14
2022-10-19T22:29:17.662Z,43.95
2022-10-19T22:31:47.919Z,43.94
2022-10-19T22:34:21.570Z,44.20
2022-10-19T22:36:51.415Z,44.01
2022-10-19T22:39:26.997Z,44.27
2022-10-19T22:41:58.654Z,44.12
2022-10-19T22:44:28.434Z,44.28
2022-10-19T22:46:58.274Z,44.28
2022-10-19T22:49:29.919Z,44.33
2022-10-19T22:52:00.458Z,44.45
2022-10-19T22:54:32.920Z,44.46
2022-10-19T22:57:02.989Z,44.38
2022-10-19T22:59:33.211Z,44.41
2022-10-19T23:02:03.678Z,44.48
2022-10-19T23:04:33.791Z,44.29
2022-10-19T23:07:03.636Z,44.33
2022-10-19T23:09:36.024Z,44.33
2022-10-19T23:12:05.986Z,44.34
2022-10-19T23:14:35.873Z,44.27
2022-10-19T23:17:05.633Z,44.28
2022-10-19T23:19:38.466Z,44.17
2022-10-19T23:22:08.505Z,44.37
2022-10-19T23:24:42.962Z,44.67
2022-10-19T23:27:12.777Z,44.29
2022-10-19T23:29:42.621Z,44.54
2022-10-19T23:32:12.632Z,44.60
2022-10-19T23:34:44.557Z,44.59
2022-10-19T23:37:17.519Z,44.81
2022-10-19T23:39:49.825Z,44.72
2022-10-19T23:42:19.841Z,44.97
2022-10-19T23:44:49.683Z,44.79
2022-10-19T23:47:19.527Z,45.02
2022-10-19T23:49:49.377Z,44.84
2022-10-19T23:52:19.195Z,44.80
2022-10-19T23:54:54.202Z,44.83
2022-10-19T23:57:24.071Z,44.94
2022-10-19T23:59:53.851Z,44.72
